sensor_id;sensor_type;location;lat;lon;timestamp;P1;durP1;ratioP1;P2;durP2;ratioP2
49458;SDS011;35354;51.296;16.924;2023-11-21T00:00:16;4.05;;;3.60;;
49458;SDS011;35354;51.296;16.924;2023-11-21T00:02:42;5.25;;;3.60;;
49458;SDS011;35354;51.296;16.924;2023-11-21T00:05:12;4.97;;;4.43;;
49458;SDS011;35354;51.296;16.924;2023-11-21T00:07:41;8.30;;;4.47;;
49458;SDS011;35354;51.296;16.924;2023-11-21T00:10:07;6.32;;;4.47;;
49458;SDS011;35354;51.296;16.924;2023-11-21T00:12:33;5.90;;;4.00;;
49458;SDS011;35354;51.296;16.924;2023-11-21T00:14:59;6.78;;;3.90;;
49458;SDS011;35354;51.296;16.924;2023-11-21T00:17:25;6.10;;;3.80;;
49458;SDS011;35354;51.296;16.924;2023-11-21T00:19:50;5.22;;;3.80;;
49458;SDS011;35354;51.296;16.924;2023-11-21T00:22:18;5.97;;;3.90;;
49458;SDS011;35354;51.296;16.924;2023-11-21T00:24:44;5.60;;;3.78;;
49458;SDS011;35354;51.296;16.924;2023-11-21T00:27:10;3.88;;;3.47;;
49458;SDS011;35354;51.296;16.924;2023-11-21T00:29:35;6.22;;;4.15;;
49458;SDS011;35354;51.296;16.924;2023-11-21T00:32:00;4.57;;;4.03;;
49458;SDS011;35354;51.296;16.924;2023-11-21T00:34:26;5.13;;;4.40;;
49458;SDS011;35354;51.296;16.924;2023-11-21T00:36:52;4.50;;;3.80;;
49458;SDS011;35354;51.296;16.924;2023-11-21T00:39:17;6.68;;;3.83;;
49458;SDS011;35354;51.296;16.924;2023-11-21T00:41:42;4.55;;;3.60;;
49458;SDS011;35354;51.296;16.924;2023-11-21T00:44:09;6.15;;;3.83;;
49458;SDS011;35354;51.296;16.924;2023-11-21T00:46:35;4.22;;;3.83;;
49458;SDS011;35354;51.296;16.924;2023-11-21T00:49:00;5.43;;;3.75;;
49458;SDS011;35354;51.296;16.924;2023-11-21T00:51:26;4.10;;;3.40;;
49458;SDS011;35354;51.296;16.924;2023-11-21T00:53:51;4.95;;;3.67;;
49458;SDS011;35354;51.296;16.924;2023-11-21T00:56:16;4.25;;;3.58;;
49458;SDS011;35354;51.296;16.924;2023-11-21T00:58:42;5.47;;;3.30;;
49458;SDS011;35354;51.296;16.924;2023-11-21T01:01:11;5.80;;;3.22;;
49458;SDS011;35354;51.296;16.924;2023-11-21T01:03:37;4.13;;;3.33;;
49458;SDS011;35354;51.296;16.924;2023-11-21T01:06:02;4.95;;;2.88;;
49458;SDS011;35354;51.296;16.924;2023-11-21T01:08:28;4.00;;;3.22;;
49458;SDS011;35354;51.296;16.924;2023-11-21T01:10:53;3.58;;;2.80;;
49458;SDS011;35354;51.296;16.924;2023-11-21T01:13:19;4.15;;;3.10;;
49458;SDS011;35354;51.296;16.924;2023-11-21T01:15:45;3.30;;;2.60;;
49458;SDS011;35354;51.296;16.924;2023-11-21T01:18:11;3.38;;;2.78;;
49458;SDS011;35354;51.296;16.924;2023-11-21T01:20:36;4.78;;;3.08;;
49458;SDS011;35354;51.296;16.924;2023-11-21T01:23:01;3.30;;;2.80;;
49458;SDS011;35354;51.296;16.924;2023-11-21T01:25:27;3.78;;;3.03;;
49458;SDS011;35354;51.296;16.924;2023-11-21T01:27:52;5.32;;;2.92;;
49458;SDS011;35354;51.296;16.924;2023-11-21T01:30:17;4.25;;;2.97;;
49458;SDS011;35354;51.296;16.924;2023-11-21T01:32:43;4.68;;;3.40;;
49458;SDS011;35354;51.296;16.924;2023-11-21T01:35:09;5.70;;;3.47;;
49458;SDS011;35354;51.296;16.924;2023-11-21T01:37:35;4.05;;;3.33;;
49458;SDS011;35354;51.296;16.924;2023-11-21T01:40:01;4.03;;;3.50;;
49458;SDS011;35354;51.296;16.924;2023-11-21T01:42:27;4.07;;;3.00;;
49458;SDS011;35354;51.296;16.924;2023-11-21T01:44:54;6.82;;;3.55;;
49458;SDS011;35354;51.296;16.924;2023-11-21T01:47:19;3.25;;;2.95;;
49458;SDS011;35354;51.296;16.924;2023-11-21T01:49:46;4.35;;;2.85;;
49458;SDS011;35354;51.296;16.924;2023-11-21T01:52:12;4.65;;;3.03;;
49458;SDS011;35354;51.296;16.924;2023-11-21T01:54:38;5.15;;;3.50;;
49458;SDS011;35354;51.296;16.924;2023-11-21T01:57:04;4.65;;;3.45;;
49458;SDS011;35354;51.296;16.924;2023-11-21T01:59:33;3.28;;;2.38;;
49458;SDS011;35354;51.296;16.924;2023-11-21T02:02:00;4.10;;;3.05;;
49458;SDS011;35354;51.296;16.924;2023-11-21T02:04:25;4.60;;;3.17;;
49458;SDS011;35354;51.296;16.924;2023-11-21T02:06:51;5.72;;;4.25;;
49458;SDS011;35354;51.296;16.924;2023-11-21T02:09:16;3.90;;;3.10;;
49458;SDS011;35354;51.296;16.924;2023-11-21T02:11:42;4.50;;;3.38;;
49458;SDS011;35354;51.296;16.924;2023-11-21T02:14:09;6.90;;;3.00;;
49458;SDS011;35354;51.296;16.924;2023-11-21T02:16:34;2.88;;;2.55;;
49458;SDS011;35354;51.296;16.924;2023-11-21T02:19:01;4.05;;;2.78;;
49458;SDS011;35354;51.296;16.924;2023-11-21T02:21:28;4.15;;;2.63;;
49458;SDS011;35354;51.296;16.924;2023-11-21T02:23:55;2.78;;;2.53;;
49458;SDS011;35354;51.296;16.924;2023-11-21T02:26:21;3.40;;;2.97;;
49458;SDS011;35354;51.296;16.924;2023-11-21T02:28:46;3.92;;;2.80;;
49458;SDS011;35354;51.296;16.924;2023-11-21T02:31:11;4.55;;;2.90;;
49458;SDS011;35354;51.296;16.924;2023-11-21T02:33:37;4.13;;;2.92;;
49458;SDS011;35354;51.296;16.924;2023-11-21T02:36:03;3.42;;;2.70;;
49458;SDS011;35354;51.296;16.924;2023-11-21T02:38:28;3.58;;;2.70;;
49458;SDS011;35354;51.296;16.924;2023-11-21T02:40:54;3.47;;;2.65;;
49458;SDS011;35354;51.296;16.924;2023-11-21T02:43:19;2.85;;;2.03;;
49458;SDS011;35354;51.296;16.924;2023-11-21T02:45:45;4.40;;;3.05;;
49458;SDS011;35354;51.296;16.924;2023-11-21T02:48:10;4.57;;;2.45;;
49458;SDS011;35354;51.296;16.924;2023-11-21T02:50:36;3.10;;;2.60;;
49458;SDS011;35354;51.296;16.924;2023-11-21T02:53:02;2.83;;;2.45;;
49458;SDS011;35354;51.296;16.924;2023-11-21T02:55:28;2.55;;;2.35;;
49458;SDS011;35354;51.296;16.924;2023-11-21T02:57:53;2.53;;;2.25;;
49458;SDS011;35354;51.296;16.924;2023-11-21T03:00:21;3.28;;;2.50;;
49458;SDS011;35354;51.296;16.924;2023-11-21T03:02:49;3.88;;;2.55;;
49458;SDS011;35354;51.296;16.924;2023-11-21T03:05:14;3.00;;;2.80;;
49458;SDS011;35354;51.296;16.924;2023-11-21T03:07:40;3.95;;;3.40;;
49458;SDS011;35354;51.296;16.924;2023-11-21T03:10:06;3.28;;;2.60;;
49458;SDS011;35354;51.296;16.924;2023-11-21T03:12:34;2.55;;;2.35;;
49458;SDS011;35354;51.296;16.924;2023-11-21T03:14:59;2.97;;;2.67;;
49458;SDS011;35354;51.296;16.924;2023-11-21T03:17:25;2.60;;;2.40;;
49458;SDS011;35354;51.296;16.924;2023-11-21T03:19:50;2.38;;;2.17;;
49458;SDS011;35354;51.296;16.924;2023-11-21T03:22:17;3.30;;;2.78;;
49458;SDS011;35354;51.296;16.924;2023-11-21T03:24:42;3.25;;;2.60;;
49458;SDS011;35354;51.296;16.924;2023-11-21T03:27:07;2.80;;;2.53;;
49458;SDS011;35354;51.296;16.924;2023-11-21T03:29:33;2.88;;;2.58;;
49458;SDS011;35354;51.296;16.924;2023-11-21T03:31:58;4.32;;;2.85;;
49458;SDS011;35354;51.296;16.924;2023-11-21T03:34:25;4.07;;;3.03;;
49458;SDS011;35354;51.296;16.924;2023-11-21T03:36:51;4.35;;;3.22;;
49458;SDS011;35354;51.296;16.924;2023-11-21T03:39:17;4.88;;;3.80;;
49458;SDS011;35354;51.296;16.924;2023-11-21T03:41:44;5.10;;;4.15;;
49458;SDS011;35354;51.296;16.924;2023-11-21T03:44:10;6.68;;;3.80;;
49458;SDS011;35354;51.296;16.924;2023-11-21T03:46:35;3.53;;;3.13;;
49458;SDS011;35354;51.296;16.924;2023-11-21T03:49:00;4.03;;;3.13;;
49458;SDS011;35354;51.296;16.924;2023-11-21T03:51:26;4.35;;;3.20;;
49458;SDS011;35354;51.296;16.924;2023-11-21T03:53:51;3.97;;;3.45;;
49458;SDS011;35354;51.296;16.924;2023-11-21T03:56:16;3.25;;;2.95;;
49458;SDS011;35354;51.296;16.924;2023-11-21T03:58:42;2.72;;;2.53;;
49458;SDS011;35354;51.296;16.924;2023-11-21T04:01:08;4.05;;;3.53;;
49458;SDS011;35354;51.296;16.924;2023-11-21T04:03:33;4.75;;;3.35;;
49458;SDS011;35354;51.296;16.924;2023-11-21T04:05:59;5.68;;;4.28;;
49458;SDS011;35354;51.296;16.924;2023-11-21T04:08:26;5.78;;;4.10;;
49458;SDS011;35354;51.296;16.924;2023-11-21T04:10:51;6.18;;;4.25;;
49458;SDS011;35354;51.296;16.924;2023-11-21T04:13:18;3.65;;;3.35;;
49458;SDS011;35354;51.296;16.924;2023-11-21T04:15:44;5.70;;;4.13;;
49458;SDS011;35354;51.296;16.924;2023-11-21T04:18:09;4.72;;;3.45;;
49458;SDS011;35354;51.296;16.924;2023-11-21T04:20:34;4.75;;;4.00;;
49458;SDS011;35354;51.296;16.924;2023-11-21T04:23:00;4.07;;;3.67;;
49458;SDS011;35354;51.296;16.924;2023-11-21T04:25:25;6.43;;;4.13;;
49458;SDS011;35354;51.296;16.924;2023-11-21T04:27:50;4.38;;;3.83;;
49458;SDS011;35354;51.296;16.924;2023-11-21T04:30:16;4.35;;;3.35;;
49458;SDS011;35354;51.296;16.924;2023-11-21T04:32:41;4.40;;;3.30;;
49458;SDS011;35354;51.296;16.924;2023-11-21T04:35:07;3.47;;;3.17;;
49458;SDS011;35354;51.296;16.924;2023-11-21T04:37:33;3.35;;;2.78;;
49458;SDS011;35354;51.296;16.924;2023-11-21T04:39:59;5.50;;;3.38;;
49458;SDS011;35354;51.296;16.924;2023-11-21T04:42:24;4.63;;;3.67;;
49458;SDS011;35354;51.296;16.924;2023-11-21T04:44:49;4.20;;;3.33;;
49458;SDS011;35354;51.296;16.924;2023-11-21T04:47:15;3.33;;;3.03;;
49458;SDS011;35354;51.296;16.924;2023-11-21T04:49:42;4.85;;;3.08;;
49458;SDS011;35354;51.296;16.924;2023-11-21T04:52:07;3.47;;;3.17;;
49458;SDS011;35354;51.296;16.924;2023-11-21T04:54:34;5.05;;;2.95;;
49458;SDS011;35354;51.296;16.924;2023-11-21T04:57:00;3.28;;;2.85;;
49458;SDS011;35354;51.296;16.924;2023-11-21T04:59:25;3.33;;;3.03;;
49458;SDS011;35354;51.296;16.924;2023-11-21T05:01:52;5.30;;;4.20;;
49458;SDS011;35354;51.296;16.924;2023-11-21T05:04:18;5.22;;;3.58;;
49458;SDS011;35354;51.296;16.924;2023-11-21T05:06:44;6.53;;;4.00;;
49458;SDS011;35354;51.296;16.924;2023-11-21T05:09:09;5.85;;;3.95;;
49458;SDS011;35354;51.296;16.924;2023-11-21T05:11:37;5.10;;;3.65;;
49458;SDS011;35354;51.296;16.924;2023-11-21T05:14:03;4.72;;;3.90;;
49458;SDS011;35354;51.296;16.924;2023-11-21T05:16:29;4.05;;;3.70;;
49458;SDS011;35354;51.296;16.924;2023-11-21T05:18:54;5.30;;;3.60;;
49458;SDS011;35354;51.296;16.924;2023-11-21T05:21:25;5.90;;;3.37;;
49458;SDS011;35354;51.296;16.924;2023-11-21T05:23:51;4.32;;;3.72;;
49458;SDS011;35354;51.296;16.924;2023-11-21T05:26:16;6.40;;;4.22;;
49458;SDS011;35354;51.296;16.924;2023-11-21T05:28:41;7.72;;;5.20;;
49458;SDS011;35354;51.296;16.924;2023-11-21T05:31:07;4.72;;;4.07;;
49458;SDS011;35354;51.296;16.924;2023-11-21T05:33:32;4.88;;;3.80;;
49458;SDS011;35354;51.296;16.924;2023-11-21T05:35:58;5.20;;;4.05;;
49458;SDS011;35354;51.296;16.924;2023-11-21T05:38:23;4.68;;;4.20;;
49458;SDS011;35354;51.296;16.924;2023-11-21T05:40:49;4.28;;;3.88;;
49458;SDS011;35354;51.296;16.924;2023-11-21T05:43:14;5.53;;;4.80;;
49458;SDS011;35354;51.296;16.924;2023-11-21T05:45:40;5.20;;;3.90;;
49458;SDS011;35354;51.296;16.924;2023-11-21T05:48:05;6.35;;;4.28;;
49458;SDS011;35354;51.296;16.924;2023-11-21T05:50:31;6.35;;;4.75;;
49458;SDS011;35354;51.296;16.924;2023-11-21T05:52:57;6.63;;;5.32;;
49458;SDS011;35354;51.296;16.924;2023-11-21T05:55:24;6.80;;;5.07;;
49458;SDS011;35354;51.296;16.924;2023-11-21T05:57:50;7.45;;;5.18;;
49458;SDS011;35354;51.296;16.924;2023-11-21T06:00:16;6.25;;;4.93;;
49458;SDS011;35354;51.296;16.924;2023-11-21T06:02:51;7.45;;;4.35;;
49458;SDS011;35354;51.296;16.924;2023-11-21T06:05:23;7.00;;;5.10;;
49458;SDS011;35354;51.296;16.924;2023-11-21T06:07:50;6.10;;;4.85;;
49458;SDS011;35354;51.296;16.924;2023-11-21T06:10:17;6.13;;;4.55;;
49458;SDS011;35354;51.296;16.924;2023-11-21T06:12:44;7.00;;;4.65;;
49458;SDS011;35354;51.296;16.924;2023-11-21T06:15:10;6.35;;;4.60;;
49458;SDS011;35354;51.296;16.924;2023-11-21T06:17:38;6.85;;;4.85;;
49458;SDS011;35354;51.296;16.924;2023-11-21T06:20:05;8.20;;;5.82;;
49458;SDS011;35354;51.296;16.924;2023-11-21T06:22:37;5.13;;;4.63;;
49458;SDS011;35354;51.296;16.924;2023-11-21T06:25:04;5.32;;;4.38;;
49458;SDS011;35354;51.296;16.924;2023-11-21T06:27:33;5.45;;;4.88;;
49458;SDS011;35354;51.296;16.924;2023-11-21T06:30:01;5.75;;;4.63;;
49458;SDS011;35354;51.296;16.924;2023-11-21T06:32:26;5.38;;;4.28;;
49458;SDS011;35354;51.296;16.924;2023-11-21T06:34:54;5.13;;;4.63;;
49458;SDS011;35354;51.296;16.924;2023-11-21T06:37:28;6.10;;;4.68;;
49458;SDS011;35354;51.296;16.924;2023-11-21T06:39:54;8.40;;;5.30;;
49458;SDS011;35354;51.296;16.924;2023-11-21T06:42:19;9.82;;;6.32;;
49458;SDS011;35354;51.296;16.924;2023-11-21T06:44:45;9.27;;;7.30;;
49458;SDS011;35354;51.296;16.924;2023-11-21T06:47:13;9.88;;;8.35;;
49458;SDS011;35354;51.296;16.924;2023-11-21T06:49:38;8.77;;;7.63;;
49458;SDS011;35354;51.296;16.924;2023-11-21T06:52:04;8.48;;;6.30;;
49458;SDS011;35354;51.296;16.924;2023-11-21T06:54:30;5.97;;;5.35;;
49458;SDS011;35354;51.296;16.924;2023-11-21T06:56:56;7.05;;;6.15;;
49458;SDS011;35354;51.296;16.924;2023-11-21T06:59:22;6.93;;;5.75;;
49458;SDS011;35354;51.296;16.924;2023-11-21T07:01:47;8.35;;;5.85;;
49458;SDS011;35354;51.296;16.924;2023-11-21T07:04:13;5.97;;;5.03;;
49458;SDS011;35354;51.296;16.924;2023-11-21T07:06:38;8.15;;;5.90;;
49458;SDS011;35354;51.296;16.924;2023-11-21T07:09:03;7.63;;;6.38;;
49458;SDS011;35354;51.296;16.924;2023-11-21T07:11:29;7.60;;;5.90;;
49458;SDS011;35354;51.296;16.924;2023-11-21T07:13:54;6.65;;;5.95;;
49458;SDS011;35354;51.296;16.924;2023-11-21T07:16:19;7.00;;;6.15;;
49458;SDS011;35354;51.296;16.924;2023-11-21T07:18:45;6.82;;;5.32;;
49458;SDS011;35354;51.296;16.924;2023-11-21T07:21:10;6.38;;;5.22;;
49458;SDS011;35354;51.296;16.924;2023-11-21T07:23:37;9.35;;;6.70;;
49458;SDS011;35354;51.296;16.924;2023-11-21T07:26:03;10.05;;;7.22;;
49458;SDS011;35354;51.296;16.924;2023-11-21T07:28:28;6.47;;;5.72;;
49458;SDS011;35354;51.296;16.924;2023-11-21T07:30:54;18.38;;;14.20;;
49458;SDS011;35354;51.296;16.924;2023-11-21T07:33:20;12.93;;;10.25;;
49458;SDS011;35354;51.296;16.924;2023-11-21T07:35:46;10.95;;;9.85;;
49458;SDS011;35354;51.296;16.924;2023-11-21T07:38:11;10.90;;;9.50;;
49458;SDS011;35354;51.296;16.924;2023-11-21T07:40:38;11.48;;;10.38;;
49458;SDS011;35354;51.296;16.924;2023-11-21T07:43:03;14.88;;;11.95;;
49458;SDS011;35354;51.296;16.924;2023-11-21T07:45:28;22.92;;;18.02;;
49458;SDS011;35354;51.296;16.924;2023-11-21T07:47:54;36.13;;;19.60;;
49458;SDS011;35354;51.296;16.924;2023-11-21T07:50:20;23.98;;;19.55;;
49458;SDS011;35354;51.296;16.924;2023-11-21T07:52:47;16.73;;;15.02;;
49458;SDS011;35354;51.296;16.924;2023-11-21T07:55:14;16.30;;;11.65;;
49458;SDS011;35354;51.296;16.924;2023-11-21T07:57:40;10.63;;;8.48;;
49458;SDS011;35354;51.296;16.924;2023-11-21T08:00:06;15.50;;;14.10;;
49458;SDS011;35354;51.296;16.924;2023-11-21T08:02:37;19.08;;;17.17;;
49458;SDS011;35354;51.296;16.924;2023-11-21T08:05:02;8.07;;;6.72;;
49458;SDS011;35354;51.296;16.924;2023-11-21T08:07:28;20.08;;;12.85;;
49458;SDS011;35354;51.296;16.924;2023-11-21T08:09:53;45.25;;;32.47;;
49458;SDS011;35354;51.296;16.924;2023-11-21T08:12:18;27.67;;;18.92;;
49458;SDS011;35354;51.296;16.924;2023-11-21T08:14:45;20.40;;;14.70;;
49458;SDS011;35354;51.296;16.924;2023-11-21T08:17:10;11.43;;;8.93;;
49458;SDS011;35354;51.296;16.924;2023-11-21T08:19:36;10.98;;;7.80;;
49458;SDS011;35354;51.296;16.924;2023-11-21T08:22:02;11.40;;;7.88;;
49458;SDS011;35354;51.296;16.924;2023-11-21T08:24:28;13.98;;;9.82;;
49458;SDS011;35354;51.296;16.924;2023-11-21T08:26:54;21.75;;;13.32;;
49458;SDS011;35354;51.296;16.924;2023-11-21T08:29:19;15.35;;;10.95;;
49458;SDS011;35354;51.296;16.924;2023-11-21T08:31:45;14.90;;;8.68;;
49458;SDS011;35354;51.296;16.924;2023-11-21T08:34:11;10.00;;;8.02;;
49458;SDS011;35354;51.296;16.924;2023-11-21T08:36:41;14.75;;;9.48;;
49458;SDS011;35354;51.296;16.924;2023-11-21T08:39:07;14.73;;;9.55;;
49458;SDS011;35354;51.296;16.924;2023-11-21T08:41:33;18.08;;;10.98;;
49458;SDS011;35354;51.296;16.924;2023-11-21T08:43:58;18.55;;;10.23;;
49458;SDS011;35354;51.296;16.924;2023-11-21T08:46:24;25.48;;;16.30;;
49458;SDS011;35354;51.296;16.924;2023-11-21T08:48:50;53.10;;;37.10;;
49458;SDS011;35354;51.296;16.924;2023-11-21T08:51:17;28.15;;;20.48;;
49458;SDS011;35354;51.296;16.924;2023-11-21T08:53:43;18.60;;;11.65;;
49458;SDS011;35354;51.296;16.924;2023-11-21T08:56:12;34.55;;;14.80;;
49458;SDS011;35354;51.296;16.924;2023-11-21T08:58:40;24.33;;;14.27;;
49458;SDS011;35354;51.296;16.924;2023-11-21T09:01:06;46.30;;;28.50;;
49458;SDS011;35354;51.296;16.924;2023-11-21T09:03:32;48.92;;;26.35;;
49458;SDS011;35354;51.296;16.924;2023-11-21T09:05:59;75.55;;;37.78;;
49458;SDS011;35354;51.296;16.924;2023-11-21T09:08:25;49.20;;;34.00;;
49458;SDS011;35354;51.296;16.924;2023-11-21T09:10:50;68.35;;;33.78;;
49458;SDS011;35354;51.296;16.924;2023-11-21T09:13:17;100.13;;;39.38;;
49458;SDS011;35354;51.296;16.924;2023-11-21T09:15:43;84.57;;;38.30;;
49458;SDS011;35354;51.296;16.924;2023-11-21T09:18:11;86.30;;;39.20;;
49458;SDS011;35354;51.296;16.924;2023-11-21T09:20:38;79.38;;;36.25;;
49458;SDS011;35354;51.296;16.924;2023-11-21T09:23:03;70.28;;;39.03;;
49458;SDS011;35354;51.296;16.924;2023-11-21T09:25:28;69.50;;;43.72;;
49458;SDS011;35354;51.296;16.924;2023-11-21T09:27:54;63.83;;;35.30;;
49458;SDS011;35354;51.296;16.924;2023-11-21T09:30:19;88.53;;;42.35;;
49458;SDS011;35354;51.296;16.924;2023-11-21T09:32:45;74.07;;;42.25;;
49458;SDS011;35354;51.296;16.924;2023-11-21T09:35:10;72.00;;;40.40;;
49458;SDS011;35354;51.296;16.924;2023-11-21T09:37:36;50.15;;;31.17;;
49458;SDS011;35354;51.296;16.924;2023-11-21T09:40:03;54.67;;;30.42;;
49458;SDS011;35354;51.296;16.924;2023-11-21T09:42:30;58.50;;;31.20;;
49458;SDS011;35354;51.296;16.924;2023-11-21T09:45:03;46.17;;;27.63;;
49458;SDS011;35354;51.296;16.924;2023-11-21T09:47:32;44.28;;;27.77;;
49458;SDS011;35354;51.296;16.924;2023-11-21T09:50:01;55.55;;;28.90;;
49458;SDS011;35354;51.296;16.924;2023-11-21T09:52:27;48.55;;;27.23;;
49458;SDS011;35354;51.296;16.924;2023-11-21T09:54:54;50.33;;;29.17;;
49458;SDS011;35354;51.296;16.924;2023-11-21T09:57:23;51.47;;;29.02;;
49458;SDS011;35354;51.296;16.924;2023-11-21T09:59:52;49.70;;;29.17;;
49458;SDS011;35354;51.296;16.924;2023-11-21T10:02:27;63.45;;;33.90;;
49458;SDS011;35354;51.296;16.924;2023-11-21T10:04:55;70.45;;;34.50;;
49458;SDS011;35354;51.296;16.924;2023-11-21T10:07:21;63.72;;;34.05;;
49458;SDS011;35354;51.296;16.924;2023-11-21T10:09:47;58.83;;;32.70;;
49458;SDS011;35354;51.296;16.924;2023-11-21T10:12:14;68.72;;;36.33;;
49458;SDS011;35354;51.296;16.924;2023-11-21T10:14:41;54.78;;;32.38;;
49458;SDS011;35354;51.296;16.924;2023-11-21T10:17:09;67.13;;;36.30;;
49458;SDS011;35354;51.296;16.924;2023-11-21T10:19:37;54.72;;;31.70;;
49458;SDS011;35354;51.296;16.924;2023-11-21T10:22:04;47.33;;;29.90;;
49458;SDS011;35354;51.296;16.924;2023-11-21T10:24:31;58.92;;;33.03;;
49458;SDS011;35354;51.296;16.924;2023-11-21T10:26:57;49.85;;;29.20;;
49458;SDS011;35354;51.296;16.924;2023-11-21T10:29:23;61.45;;;33.45;;
49458;SDS011;35354;51.296;16.924;2023-11-21T10:31:51;63.85;;;37.38;;
49458;SDS011;35354;51.296;16.924;2023-11-21T10:34:19;70.25;;;40.08;;
49458;SDS011;35354;51.296;16.924;2023-11-21T10:36:46;56.08;;;33.45;;
49458;SDS011;35354;51.296;16.924;2023-11-21T10:39:19;48.22;;;29.15;;
49458;SDS011;35354;51.296;16.924;2023-11-21T10:41:48;52.92;;;31.75;;
49458;SDS011;35354;51.296;16.924;2023-11-21T10:44:14;52.10;;;30.23;;
49458;SDS011;35354;51.296;16.924;2023-11-21T10:46:46;54.40;;;32.78;;
49458;SDS011;35354;51.296;16.924;2023-11-21T10:49:15;85.85;;;34.28;;
49458;SDS011;35354;51.296;16.924;2023-11-21T10:51:44;75.78;;;42.70;;
49458;SDS011;35354;51.296;16.924;2023-11-21T10:54:10;79.03;;;39.75;;
49458;SDS011;35354;51.296;16.924;2023-11-21T10:56:37;66.93;;;33.50;;
49458;SDS011;35354;51.296;16.924;2023-11-21T10:59:07;57.53;;;30.20;;
49458;SDS011;35354;51.296;16.924;2023-11-21T11:01:34;50.17;;;26.38;;
49458;SDS011;35354;51.296;16.924;2023-11-21T11:04:01;47.33;;;24.42;;
49458;SDS011;35354;51.296;16.924;2023-11-21T11:06:31;48.42;;;26.33;;
49458;SDS011;35354;51.296;16.924;2023-11-21T11:08:58;40.40;;;22.33;;
49458;SDS011;35354;51.296;16.924;2023-11-21T11:11:27;35.38;;;20.95;;
49458;SDS011;35354;51.296;16.924;2023-11-21T11:13:53;29.02;;;19.15;;
49458;SDS011;35354;51.296;16.924;2023-11-21T11:16:19;38.00;;;21.10;;
49458;SDS011;35354;51.296;16.924;2023-11-21T11:18:45;23.60;;;16.40;;
49458;SDS011;35354;51.296;16.924;2023-11-21T11:27:01;38.95;;;22.70;;
49458;SDS011;35354;51.296;16.924;2023-11-21T11:35:42;33.85;;;18.55;;
49458;SDS011;35354;51.296;16.924;2023-11-21T11:38:18;29.63;;;19.33;;
49458;SDS011;35354;51.296;16.924;2023-11-21T11:40:46;29.02;;;19.15;;
49458;SDS011;35354;51.296;16.924;2023-11-21T11:43:12;62.58;;;28.63;;
49458;SDS011;35354;51.296;16.924;2023-11-21T11:45:38;46.95;;;21.33;;
49458;SDS011;35354;51.296;16.924;2023-11-21T11:48:07;44.25;;;19.42;;
49458;SDS011;35354;51.296;16.924;2023-11-21T11:50:33;60.80;;;24.27;;
49458;SDS011;35354;51.296;16.924;2023-11-21T11:55:57;46.03;;;21.08;;
49458;SDS011;35354;51.296;16.924;2023-11-21T11:58:43;44.13;;;19.63;;
49458;SDS011;35354;51.296;16.924;2023-11-21T12:01:08;37.20;;;18.27;;
49458;SDS011;35354;51.296;16.924;2023-11-21T12:03:36;30.85;;;15.68;;
49458;SDS011;35354;51.296;16.924;2023-11-21T12:06:02;28.85;;;15.80;;
49458;SDS011;35354;51.296;16.924;2023-11-21T12:08:28;34.03;;;17.10;;
49458;SDS011;35354;51.296;16.924;2023-11-21T12:10:56;25.67;;;14.88;;
49458;SDS011;35354;51.296;16.924;2023-11-21T12:13:22;20.33;;;12.60;;
49458;SDS011;35354;51.296;16.924;2023-11-21T12:15:48;19.05;;;12.55;;
49458;SDS011;35354;51.296;16.924;2023-11-21T12:18:14;19.58;;;12.98;;
49458;SDS011;35354;51.296;16.924;2023-11-21T12:20:39;38.53;;;20.83;;
49458;SDS011;35354;51.296;16.924;2023-11-21T12:23:06;39.15;;;20.33;;
49458;SDS011;35354;51.296;16.924;2023-11-21T12:25:34;24.52;;;15.23;;
49458;SDS011;35354;51.296;16.924;2023-11-21T12:28:01;23.33;;;15.02;;
49458;SDS011;35354;51.296;16.924;2023-11-21T12:30:31;20.75;;;13.75;;
49458;SDS011;35354;51.296;16.924;2023-11-21T12:33:00;23.25;;;14.98;;
49458;SDS011;35354;51.296;16.924;2023-11-21T12:35:30;29.00;;;18.35;;
49458;SDS011;35354;51.296;16.924;2023-11-21T12:37:59;27.00;;;17.98;;
49458;SDS011;35354;51.296;16.924;2023-11-21T12:40:25;29.45;;;18.60;;
49458;SDS011;35354;51.296;16.924;2023-11-21T12:42:54;25.38;;;18.38;;
49458;SDS011;35354;51.296;16.924;2023-11-21T12:48:04;24.45;;;17.23;;
49458;SDS011;35354;51.296;16.924;2023-11-21T12:50:36;23.88;;;15.57;;
49458;SDS011;35354;51.296;16.924;2023-11-21T12:53:03;57.17;;;27.58;;
49458;SDS011;35354;51.296;16.924;2023-11-21T12:55:33;23.85;;;17.20;;
49458;SDS011;35354;51.296;16.924;2023-11-21T12:58:03;27.27;;;18.45;;
49458;SDS011;35354;51.296;16.924;2023-11-21T13:03:08;19.55;;;15.32;;
49458;SDS011;35354;51.296;16.924;2023-11-21T13:05:37;26.73;;;20.50;;
49458;SDS011;35354;51.296;16.924;2023-11-21T13:08:04;32.78;;;21.52;;
49458;SDS011;35354;51.296;16.924;2023-11-21T13:10:33;22.27;;;17.73;;
49458;SDS011;35354;51.296;16.924;2023-11-21T13:13:05;22.80;;;16.33;;
49458;SDS011;35354;51.296;16.924;2023-11-21T13:15:35;15.15;;;13.55;;
49458;SDS011;35354;51.296;16.924;2023-11-21T13:18:05;23.98;;;17.90;;
49458;SDS011;35354;51.296;16.924;2023-11-21T13:20:31;28.80;;;19.02;;
49458;SDS011;35354;51.296;16.924;2023-11-21T13:22:57;22.13;;;16.83;;
49458;SDS011;35354;51.296;16.924;2023-11-21T13:25:27;23.08;;;18.52;;
49458;SDS011;35354;51.296;16.924;2023-11-21T13:27:56;27.80;;;20.83;;
49458;SDS011;35354;51.296;16.924;2023-11-21T13:30:25;31.60;;;22.55;;
49458;SDS011;35354;51.296;16.924;2023-11-21T13:32:55;28.17;;;21.88;;
49458;SDS011;35354;51.296;16.924;2023-11-21T13:35:27;37.15;;;26.63;;
49458;SDS011;35354;51.296;16.924;2023-11-21T13:38:02;38.95;;;25.25;;
49458;SDS011;35354;51.296;16.924;2023-11-21T13:40:32;42.28;;;26.35;;
49458;SDS011;35354;51.296;16.924;2023-11-21T13:43:00;45.30;;;28.60;;
49458;SDS011;35354;51.296;16.924;2023-11-21T13:45:29;55.78;;;33.00;;
49458;SDS011;35354;51.296;16.924;2023-11-21T13:47:54;43.65;;;29.10;;
49458;SDS011;35354;51.296;16.924;2023-11-21T13:50:22;40.05;;;27.38;;
49458;SDS011;35354;51.296;16.924;2023-11-21T13:52:54;36.92;;;24.85;;
49458;SDS011;35354;51.296;16.924;2023-11-21T13:55:19;51.97;;;31.05;;
49458;SDS011;35354;51.296;16.924;2023-11-21T13:57:46;45.08;;;28.45;;
49458;SDS011;35354;51.296;16.924;2023-11-21T14:00:16;43.00;;;27.80;;
49458;SDS011;35354;51.296;16.924;2023-11-21T14:03:08;41.15;;;27.90;;
49458;SDS011;35354;51.296;16.924;2023-11-21T14:05:41;49.22;;;30.90;;
49458;SDS011;35354;51.296;16.924;2023-11-21T14:08:08;48.35;;;27.77;;
49458;SDS011;35354;51.296;16.924;2023-11-21T14:10:36;43.67;;;27.77;;
49458;SDS011;35354;51.296;16.924;2023-11-21T14:13:08;64.80;;;31.52;;
49458;SDS011;35354;51.296;16.924;2023-11-21T14:15:38;56.47;;;31.35;;
49458;SDS011;35354;51.296;16.924;2023-11-21T14:18:07;40.92;;;27.15;;
49458;SDS011;35354;51.296;16.924;2023-11-21T14:20:35;36.13;;;24.63;;
49458;SDS011;35354;51.296;16.924;2023-11-21T14:23:02;50.08;;;28.95;;
49458;SDS011;35354;51.296;16.924;2023-11-21T14:25:29;50.08;;;28.55;;
49458;SDS011;35354;51.296;16.924;2023-11-21T14:27:54;55.22;;;30.77;;
49458;SDS011;35354;51.296;16.924;2023-11-21T14:30:21;70.50;;;36.50;;
49458;SDS011;35354;51.296;16.924;2023-11-21T14:32:47;63.83;;;36.13;;
49458;SDS011;35354;51.296;16.924;2023-11-21T14:35:14;71.70;;;36.03;;
49458;SDS011;35354;51.296;16.924;2023-11-21T14:37:42;52.08;;;32.97;;
49458;SDS011;35354;51.296;16.924;2023-11-21T14:40:08;68.15;;;38.13;;